Savoonga Airport
PASA : now visible

Airfield :











YOU CAN JOIN US ON...

 
LOGIN :

Register | Disclaimer

   EN    FR    IT 

 









Legend :    VFR   Marginal VFR   IFR   Intensive IFR   Very Intensive IFR
Visi :
Ceiling :
>= 8 km
>= 3000ft
5 to 8 km
1000 to 3000 ft
1500m to 5 km
500 to 1000 ft
800 to 1500m
200 to 500 ft
< 800m
< 200 ft
Symbols :   Thunderstorms  Fog  Heavy snow  Heavy precipitations  Wind > 20 kt






- Airport Elevation : 53 ft
- IATA code : SVA


PASA - Savoonga

CURRENT METAR :
  • 191256Z AUTO 02015G20KT 5SM BR OVC004 03/03 A2974 RMK AO2 WSHFT 1143 RAE27 SLP070 T00330028 PNO $

EXPIRED METARs :
  • 191222Z AUTO 03013G19KT 4SM -RA BR OVC004 04/03 A2973 RMK AO2 WSHFT 1143 PNO $
  • 191203Z AUTO 01014G20KT 3SM -RA BR OVC002 04/04 A2972 RMK AO2 WSHFT 1143 PNO $
  • 191156Z AUTO 35017G20KT 3SM -RA BR OVC002 04/04 A2971 RMK AO2 WSHFT 1139 RAB51 SLP061 6//// 7//// T00440044 10067 20044 53002 PNO $
  • 191139Z AUTO 28012KT 5SM BR OVC002 05/04 A2971 RMK AO2 CIG 001V007 PNO $
  • 191125Z AUTO 28015G20KT 2SM BR BKN002 OVC011 04/04 A2970 RMK AO2 CIG 002V007 PNO $
  • 191056Z AUTO 26015KT 9SM BKN004 OVC009 05/04 A2970 RMK AO2 CIG 002V007 SLP056 T00500044 PNO $
  • 191048Z AUTO 27018KT 8SM BKN004 OVC009 05/04 A2970 RMK AO2 CIG 002V006 PNO $

TAF N/A
PAZA FIR / North America



MET'MAP, your aeronautical weather chart ! - Copyright ORBIFLY December 2007 - Disclaimer

ORBIFLY MET'MAP TEAM :

Programming & Development : Alexandra Zaïnal
Concept & original design : Baudouin d'Aumeries
Assistance for programming : Marc-Olivier Méhu
Technical & hardware support : Manuel Goepfert

Contact : metmap@orbifly.com




SOURCES & CREDITS :

   NOAA       Earth
Advisory